Time;durP1;ratioP1;P1;durP2;ratioP2;P2;SDS_P1;SDS_P2;PMS_P1;PMS_P2;Temp;Humidity;BMP_temperature;BMP_pressure;BME280_temperature;BME280_humidity;BME280_pressure;Samples;Min_cycle;Max_cycle;Signal;HPM_P1;HPM_P2
2022/08/05 00:00:13;;;;;;;12.25;7.08;;;;;;;19.47;60.53;100454.24;1597002;87;25819;-69
2022/08/05 00:02:42;;;;;;;9.45;6.45;;;;;;;19.45;60.37;100457.94;1618375;85;25482;-68
2022/08/05 00:05:08;;;;;;;9.03;6.83;;;;;;;19.44;60.65;100457.70;1616148;87;27508;-70
2022/08/05 00:07:35;;;;;;;11.20;7.25;;;;;;;19.44;60.75;100457.70;1616146;87;26348;-69
2022/08/05 00:10:01;;;;;;;13.43;7.47;;;;;;;19.39;60.85;100454.13;1616258;87;25460;-69
2022/08/05 00:12:28;;;;;;;12.80;6.87;;;;;;;19.40;60.95;100463.92;1625937;87;25717;-70
2022/08/05 00:14:54;;;;;;;15.65;6.78;;;;;;;19.39;61.01;100459.61;1625483;87;26387;-70
2022/08/05 00:17:21;;;;;;;12.88;6.45;;;;;;;19.38;60.96;100459.38;1624731;87;27371;-70
2022/08/05 00:19:47;;;;;;;8.90;6.70;;;;;;;19.37;61.15;100461.11;1626302;86;25745;-69
2022/08/05 00:22:14;;;;;;;12.75;6.80;;;;;;;19.35;61.15;100462.84;1616247;87;25762;-69
2022/08/05 00:24:40;;;;;;;11.12;6.75;;;;;;;19.34;61.32;100459.91;1617131;87;25896;-69
2022/08/05 00:27:07;;;;;;;7.90;6.33;;;;;;;19.33;61.31;100463.02;1623085;87;26270;-72
2022/08/05 00:29:33;;;;;;;7.40;6.10;;;;;;;19.31;61.52;100462.00;1663155;85;27305;-73
2022/08/05 00:32:00;;;;;;;10.78;6.45;;;;;;;19.31;61.71;100465.33;1645036;86;25472;-73
2022/08/05 00:34:27;;;;;;;7.95;6.33;;;;;;;19.28;61.78;100459.98;1635446;86;25707;-73
2022/08/05 00:36:53;;;;;;;8.63;6.55;;;;;;;19.25;61.93;100455.22;1633437;87;25452;-73
2022/08/05 00:39:20;;;;;;;10.23;6.80;;;;;;;19.22;61.95;100465.54;1625871;86;25933;-73
2022/08/05 00:41:47;;;;;;;8.93;6.62;;;;;;;19.19;62.05;100462.96;1620224;85;28047;-74
2022/08/05 00:44:14;;;;;;;10.80;6.78;;;;;;;19.16;62.10;100465.64;1644432;87;25856;-73
2022/08/05 00:46:40;;;;;;;9.40;6.55;;;;;;;19.13;62.31;100459.50;1652791;85;25771;-73
2022/08/05 00:49:07;;;;;;;7.65;6.58;;;;;;;19.11;62.36;100459.87;1646322;86;25800;-73
2022/08/05 00:51:33;;;;;;;8.95;6.75;;;;;;;19.10;62.68;100458.86;1645469;86;25823;-73
2022/08/05 00:53:59;;;;;;;8.35;6.17;;;;;;;19.08;62.61;100461.17;1646367;86;27376;-73
2022/08/05 00:56:26;;;;;;;9.10;5.83;;;;;;;19.06;62.83;100453.89;1646344;85;25708;-73
2022/08/05 00:58:52;;;;;;;7.75;6.62;;;;;;;19.06;62.90;100455.27;1630733;86;26284;-73
2022/08/05 01:01:18;;;;;;;8.45;6.53;;;;;;;19.02;63.25;100451.88;1659446;85;25550;-73
2022/08/05 01:03:45;;;;;;;9.48;6.65;;;;;;;19.01;63.16;100453.02;1667275;85;25766;-73
2022/08/05 01:06:11;;;;;;;10.80;7.00;;;;;;;19.00;63.17;100450.08;1682341;83;28178;-74
2022/08/05 01:08:38;;;;;;;8.50;6.83;;;;;;;18.99;63.50;100450.44;1668051;84;25676;-74
2022/08/05 01:11:12;;;;;;;12.30;7.20;;;;;;;18.97;63.36;100450.80;1686052;83;25723;-74
2022/08/05 01:14:07;;;;;;;8.85;6.47;;;;;;;18.94;63.61;100443.30;1636620;86;26177;-73
2022/08/05 01:16:54;;;;;;;12.70;6.67;;;;;;;18.95;63.92;100446.81;1708623;83;25595;-73
2022/08/05 01:19:31;;;;;;;9.95;6.25;;;;;;;18.93;63.83;100443.66;1688734;83;27550;-73
2022/08/05 01:22:18;;;;;;;8.30;6.67;;;;;;;18.90;63.98;100439.70;1680115;84;25663;-72
2022/08/05 01:25:11;;;;;;;10.13;6.53;;;;;;;18.89;63.97;100444.17;1688912;83;25655;-73
2022/08/05 01:28:20;;;;;;;7.10;6.35;;;;;;;18.87;64.03;100441.79;1633048;87;25902;-73
2022/08/05 01:31:11;;;;;;;;;;;;;;;18.85;64.19;100438.62;1666464;83;25740;-73
2022/08/05 01:33:46;;;;;;;8.55;6.92;;;;;;;18.83;64.40;100437.61;1663192;83;27391;-73
2022/08/05 01:36:16;;;;;;;9.08;6.62;;;;;;;18.78;64.30;100438.43;1663751;84;25570;-73
2022/08/05 01:38:48;;;;;;;8.45;6.37;;;;;;;18.75;64.31;100433.11;1670984;83;25630;-73
2022/08/05 01:41:19;;;;;;;9.75;6.12;;;;;;;18.73;64.42;100440.91;1639645;83;25995;-73
2022/08/05 01:43:48;;;;;;;6.65;5.85;;;;;;;18.69;64.77;100433.17;1684549;84;25316;-73
2022/08/05 01:46:16;;;;;;;7.12;6.37;;;;;;;18.66;64.73;100431.14;1672116;83;27570;-73
2022/08/05 01:48:45;;;;;;;8.53;6.72;;;;;;;18.64;64.78;100434.83;1662686;84;25711;-73
2022/08/05 01:51:12;;;;;;;;;;;;;;;18.61;64.96;100430.88;1667136;84;25727;-73
2022/08/05 01:53:40;;;;;;;6.75;6.05;;;;;;;18.59;65.08;100436.48;1708015;83;25562;-73
2022/08/05 01:56:08;;;;;;;8.03;6.75;;;;;;;18.54;65.06;100432.11;1689298;84;25435;-73
2022/08/05 01:58:36;;;;;;;8.48;6.28;;;;;;;18.51;64.97;100424.60;1678787;83;28292;-73
2022/08/05 02:01:05;;;;;;;8.05;6.65;;;;;;;18.48;65.09;100423.95;1682811;83;25787;-73
2022/08/05 02:03:36;;;;;;;8.70;5.85;;;;;;;18.45;65.25;100424.66;1674221;83;25626;-73
2022/08/05 02:06:05;;;;;;;7.92;6.10;;;;;;;18.41;65.35;100429.28;1684766;83;25640;-73
2022/08/05 02:08:34;;;;;;;9.25;7.10;;;;;;;18.38;65.54;100432.73;1671863;84;25644;-73
2022/08/05 02:11:06;;;;;;;8.73;6.65;;;;;;;18.35;66.02;100430.12;1670898;85;27419;-73
2022/08/05 02:13:40;;;;;;;10.43;6.90;;;;;;;18.34;66.09;100429.10;1669579;83;25443;-73
2022/08/05 02:16:31;;;;;;;7.95;6.10;;;;;;;18.31;65.98;100423.00;1709341;83;25664;-73
2022/08/05 02:19:11;;;;;;;7.47;6.72;;;;;;;18.28;65.91;100421.17;1709198;83;25670;-73
2022/08/05 02:21:43;;;;;;;7.22;6.53;;;;;;;18.24;66.49;100417.58;1679204;83;25649;-73
2022/08/05 02:24:15;;;;;;;6.92;6.22;;;;;;;18.23;66.63;100413.23;1691526;83;27370;-72
2022/08/05 02:26:49;;;;;;;8.23;6.20;;;;;;;18.21;66.68;100407.92;1679519;84;25733;-73
2022/08/05 02:29:20;;;;;;;8.80;6.28;;;;;;;18.18;66.44;100404.52;1701080;83;25654;-73
2022/08/05 02:31:50;;;;;;;8.53;6.37;;;;;;;18.16;66.45;100404.88;1707892;83;25615;-74
2022/08/05 02:34:19;;;;;;;10.00;6.42;;;;;;;18.14;66.49;100408.55;1696013;83;25336;-72
2022/08/05 02:36:53;;;;;;;9.68;6.20;;;;;;;18.12;66.81;100399.91;1689551;84;27461;-72
2022/08/05 02:39:22;;;;;;;8.65;6.42;;;;;;;18.09;66.71;100406.09;1680696;83;25739;-71
2022/08/05 02:41:51;;;;;;;7.17;6.53;;;;;;;18.07;66.81;100410.55;1680916;84;25722;-72
2022/08/05 02:44:19;;;;;;;10.00;7.45;;;;;;;18.04;67.17;100405.00;1698301;84;34880;-72
2022/08/05 02:46:47;;;;;;;7.17;6.47;;;;;;;18.02;67.21;100402.63;1678633;84;25806;-74
2022/08/05 02:49:16;;;;;;;8.88;6.80;;;;;;;18.01;67.12;100398.87;1698303;84;27391;-73
2022/08/05 02:51:44;;;;;;;11.30;7.25;;;;;;;18.00;67.39;100393.20;1691791;84;25717;-74
2022/08/05 02:54:13;;;;;;;7.70;6.85;;;;;;;17.98;67.29;100390.81;1687092;84;25656;-73
2022/08/05 02:56:42;;;;;;;8.40;6.92;;;;;;;17.97;67.26;100396.64;1673576;83;25705;-73
2022/08/05 02:59:13;;;;;;;8.78;6.17;;;;;;;17.95;67.64;100388.00;1670086;84;25416;-73
2022/08/05 03:01:40;;;;;;;7.37;6.67;;;;;;;17.92;67.49;100390.27;1670762;84;27408;-73
2022/08/05 03:04:11;;;;;;;9.10;6.42;;;;;;;17.91;67.49;100392.81;1669848;84;25733;-73
2022/08/05 03:06:40;;;;;;;9.98;6.85;;;;;;;17.90;68.00;100392.58;1637057;87;25503;-72
2022/08/05 03:09:07;;;;;;;12.03;9.37;;;;;;;17.89;68.04;100397.04;1633402;86;25756;-72
2022/08/05 03:11:33;;;;;;;8.40;7.00;;;;;;;17.87;67.97;100391.92;1613191;86;25741;-72
2022/08/05 03:13:59;;;;;;;7.87;6.72;;;;;;;17.85;68.04;100393.41;1605638;88;27610;-74
2022/08/05 03:16:26;;;;;;;7.95;7.00;;;;;;;17.83;68.23;100384.77;1628286;86;25673;-73
2022/08/05 03:18:52;;;;;;;9.80;6.97;;;;;;;17.81;68.14;100386.48;1630332;86;25764;-73
2022/08/05 03:21:18;;;;;;;7.08;6.47;;;;;;;17.81;68.28;100387.05;1618976;86;25668;-73
2022/08/05 03:23:45;;;;;;;7.30;6.65;;;;;;;17.78;68.43;100388.56;1636158;85;25670;-73
2022/08/05 03:26:12;;;;;;;7.67;7.08;;;;;;;17.77;68.51;100384.23;1626509;87;28062;-73
2022/08/05 03:28:38;;;;;;;8.65;7.20;;;;;;;17.75;68.93;100387.90;1636896;87;25479;-73
2022/08/05 03:31:06;;;;;;;8.80;7.25;;;;;;;17.74;69.08;100386.30;1637527;86;25708;-74
2022/08/05 03:33:32;;;;;;;13.85;7.03;;;;;;;17.73;69.17;100382.00;1636935;87;26032;-73
2022/08/05 03:36:00;;;;;;;9.13;7.80;;;;;;;17.73;69.17;100386.10;1636953;86;25642;-73
2022/08/05 03:38:27;;;;;;;8.93;7.35;;;;;;;17.74;69.35;100382.20;1635130;86;27367;-73
2022/08/05 03:40:53;;;;;;;13.35;7.20;;;;;;;17.76;69.39;100384.58;1586553;88;25716;-73
2022/08/05 03:43:23;;;;;;;9.65;7.03;;;;;;;17.76;69.87;100377.19;1603918;88;25740;-73
2022/08/05 03:45:50;;;;;;;7.22;6.53;;;;;;;17.80;69.99;100373.16;1643127;86;26080;-73
2022/08/05 03:48:16;;;;;;;10.32;6.97;;;;;;;17.81;69.95;100372.81;1624527;85;25656;-73
2022/08/05 03:50:55;;;;;;;9.25;6.85;;;;;;;17.83;69.87;100370.51;1621731;85;27394;-73
2022/08/05 03:53:36;;;;;;;7.40;6.40;;;;;;;17.85;69.94;100375.63;1621187;86;25822;-73
2022/08/05 03:56:13;;;;;;;7.58;6.85;;;;;;;17.87;70.23;100375.50;1621594;85;25530;-72
2022/08/05 03:58:44;;;;;;;8.38;6.67;;;;;;;17.88;70.17;100379.84;1621793;85;25671;-71
2022/08/05 04:01:13;;;;;;;7.15;6.47;;;;;;;17.91;70.15;100374.21;1621743;87;25494;-73
2022/08/05 04:03:41;;;;;;;;;;;;;;;17.93;70.16;100374.67;1624171;85;27942;-72
2022/08/05 04:06:08;;;;;;;7.03;6.42;;;;;;;17.98;70.74;100385.34;1638234;85;25600;-73
2022/08/05 04:08:36;;;;;;;8.13;7.17;;;;;;;18.00;70.79;100381.66;1630026;85;25642;-72
2022/08/05 04:11:06;;;;;;;7.83;7.03;;;;;;;18.04;70.87;100383.89;1626975;85;25868;-72
2022/08/05 04:13:33;;;;;;;8.58;7.70;;;;;;;18.09;70.79;100382.83;1626842;85;25622;-73
2022/08/05 04:15:59;;;;;;;10.18;7.37;;;;;;;18.11;70.87;100382.67;1634118;86;27617;-72
2022/08/05 04:18:26;;;;;;;8.45;7.60;;;;;;;18.17;71.04;100384.58;1652419;85;25469;-72
2022/08/05 04:20:56;;;;;;;8.20;7.00;;;;;;;18.22;71.26;100380.19;1626927;85;25650;-72
2022/08/05 04:23:25;;;;;;;7.90;7.10;;;;;;;18.29;71.33;100382.28;1626760;85;26050;-72
2022/08/05 04:25:52;;;;;;;8.18;7.15;;;;;;;18.34;71.22;100387.48;1624273;85;32478;-72
2022/08/05 04:28:20;;;;;;;10.20;7.65;;;;;;;18.39;71.40;100382.27;1622601;87;27394;-72
2022/08/05 04:30:47;;;;;;;8.20;7.22;;;;;;;18.45;71.45;100387.69;1625782;85;25721;-72
2022/08/05 04:33:15;;;;;;;12.60;7.40;;;;;;;18.52;71.36;100387.05;1627063;85;25621;-73
2022/08/05 04:35:42;;;;;;;9.28;7.65;;;;;;;18.59;71.55;100383.88;1622194;87;25714;-73
2022/08/05 04:38:09;;;;;;;8.25;6.85;;;;;;;18.66;71.53;100385.94;1627617;85;25698;-73
2022/08/05 04:40:38;;;;;;;10.15;7.17;;;;;;;18.74;71.66;100389.05;1671168;85;27897;-73
2022/08/05 04:43:05;;;;;;;11.33;7.30;;;;;;;18.81;71.74;100384.28;1689039;85;25808;-73
2022/08/05 04:45:32;;;;;;;9.70;7.22;;;;;;;18.89;71.72;100384.66;1688957;85;25740;-73
2022/08/05 04:48:08;;;;;;;8.08;6.62;;;;;;;18.98;71.74;100381.69;1685817;84;25685;-73
2022/08/05 04:50:43;;;;;;;10.35;7.25;;;;;;;19.06;71.76;100383.41;1670607;84;25743;-73
2022/08/05 04:53:11;;;;;;;13.35;9.50;;;;;;;19.16;71.65;100375.95;1657500;84;29023;-72
2022/08/05 04:55:40;;;;;;;10.95;8.00;;;;;;;19.27;71.68;100378.08;1669905;84;25691;-74
2022/08/05 04:58:09;;;;;;;8.58;7.75;;;;;;;19.35;71.51;100375.67;1663065;84;25686;-73
2022/08/05 05:00:36;;;;;;;8.70;7.42;;;;;;;19.45;71.54;100379.17;1691274;84;25904;-73
2022/08/05 05:03:05;;;;;;;9.10;7.10;;;;;;;19.55;71.43;100374.44;1662900;83;25759;-73
2022/08/05 05:05:32;;;;;;;8.90;7.05;;;;;;;19.67;71.50;100379.52;1664792;84;28082;-73
2022/08/05 05:08:02;;;;;;;13.05;7.53;;;;;;;19.77;71.33;100381.08;1665259;83;26272;-73
2022/08/05 05:10:35;;;;;;;7.30;6.60;;;;;;;19.87;71.33;100382.41;1662223;84;25850;-74
2022/08/05 05:13:01;;;;;;;11.53;6.67;;;;;;;20.01;71.24;100384.55;1690952;84;26058;-73
2022/08/05 05:15:27;;;;;;;7.22;6.53;;;;;;;20.15;71.31;100393.56;1663199;84;25766;-73
2022/08/05 05:17:54;;;;;;;8.23;6.10;;;;;;;20.26;70.87;100395.89;1691053;84;27386;-73
2022/08/05 05:20:20;;;;;;;9.83;6.30;;;;;;;20.41;70.76;100395.46;1641569;83;25767;-73
2022/08/05 05:22:46;;;;;;;6.20;5.60;;;;;;;20.52;70.34;100395.02;1688550;84;25723;-73
2022/08/05 05:25:13;;;;;;;8.13;5.92;;;;;;;20.66;70.19;100391.67;1690971;84;26244;-74
2022/08/05 05:27:39;;;;;;;8.98;5.85;;;;;;;20.81;69.93;100392.63;1691320;84;25750;-73
2022/08/05 05:30:08;;;;;;;6.22;5.62;;;;;;;20.96;69.75;100394.14;1671163;84;27337;-73
2022/08/05 05:32:34;;;;;;;8.30;6.10;;;;;;;21.12;69.45;100391.18;1691150;84;25751;-74
2022/08/05 05:35:00;;;;;;;6.40;5.83;;;;;;;21.30;69.18;100392.70;1668540;83;25503;-73
2022/08/05 05:37:27;;;;;;;6.58;5.33;;;;;;;21.47;69.27;100396.23;1686438;84;26284;-72
2022/08/05 05:39:53;;;;;;;12.43;6.08;;;;;;;21.65;68.97;100403.24;1669502;83;25410;-73
2022/08/05 05:42:20;;;;;;;5.47;5.00;;;;;;;21.82;68.37;100401.80;1657857;85;27412;-74
2022/08/05 05:44:46;;;;;;;6.62;5.55;;;;;;;21.96;67.25;100403.28;1702795;83;25434;-77
2022/08/05 05:47:13;;;;;;;8.83;5.53;;;;;;;22.12;67.08;100402.19;1691603;83;25582;-76
2022/08/05 05:49:39;;;;;;;5.90;5.30;;;;;;;22.28;66.57;100412.91;1677340;84;25686;-76
2022/08/05 05:52:06;;;;;;;6.75;5.53;;;;;;;22.42;66.30;100403.33;1677581;84;25671;-74
2022/08/05 05:54:32;;;;;;;8.35;5.30;;;;;;;22.58;65.67;100407.15;1677368;84;28107;-74
2022/08/05 05:56:59;;;;;;;5.95;4.97;;;;;;;22.71;65.29;100401.48;1677490;84;25699;-75
2022/08/05 05:59:26;;;;;;;6.83;4.83;;;;;;;22.88;64.98;100404.66;1677796;84;25715;-74
2022/08/05 06:01:52;;;;;;;8.35;4.92;;;;;;;23.03;64.42;100409.03;1677241;83;25776;-74
2022/08/05 06:04:19;;;;;;;8.43;4.90;;;;;;;23.16;63.96;100398.45;1692406;84;25671;-74
2022/08/05 06:06:45;;;;;;;7.12;5.25;;;;;;;23.29;64.07;100398.84;1686329;84;27590;-74
2022/08/05 06:09:12;;;;;;;7.83;5.15;;;;;;;23.44;63.45;100403.78;1693071;83;25971;-74
2022/08/05 06:11:38;;;;;;;5.20;4.80;;;;;;;23.57;62.96;100406.95;1677176;84;25727;-74
2022/08/05 06:14:05;;;;;;;5.25;4.78;;;;;;;23.71;62.44;100409.69;1687225;84;26396;-73
2022/08/05 06:16:31;;;;;;;4.85;4.45;;;;;;;23.82;61.90;100402.79;1686985;84;26178;-74
2022/08/05 06:18:59;;;;;;;5.83;4.87;;;;;;;23.94;61.43;100401.59;1677220;84;27294;-75
2022/08/05 06:21:25;;;;;;;6.37;4.80;;;;;;;24.05;60.82;100399.59;1693514;84;25688;-75
2022/08/05 06:23:52;;;;;;;4.87;4.40;;;;;;;24.16;60.79;100401.75;1680479;83;25728;-74
2022/08/05 06:26:18;;;;;;;5.75;4.97;;;;;;;24.30;60.61;100405.66;1677293;84;25855;-74
2022/08/05 06:28:45;;;;;;;5.83;5.10;;;;;;;24.45;60.67;100401.65;1699747;83;25704;-74
2022/08/05 06:31:11;;;;;;;8.75;4.78;;;;;;;24.65;60.26;100403.95;1694448;83;27328;-74
2022/08/05 06:33:38;;;;;;;5.83;4.83;;;;;;;24.83;59.92;100402.48;1677182;84;25913;-73
2022/08/05 06:36:05;;;;;;;4.67;4.28;;;;;;;24.98;59.34;100404.75;1677115;84;25748;-73
2022/08/05 06:38:31;;;;;;;6.00;4.53;;;;;;;25.11;58.79;100395.96;1682829;84;25772;-69
2022/08/05 06:40:57;;;;;;;5.78;4.60;;;;;;;25.28;58.45;100399.22;1666736;83;25738;-69
2022/08/05 06:43:24;;;;;;;5.58;4.55;;;;;;;25.45;58.35;100398.11;1677448;84;26861;-71
2022/08/05 06:45:51;;;;;;;5.33;4.62;;;;;;;25.62;58.02;100400.53;1679189;83;25495;-72
2022/08/05 06:48:17;;;;;;;4.45;4.05;;;;;;;25.77;57.10;100395.05;1662774;83;25620;-72
2022/08/05 06:50:44;;;;;;;5.20;4.70;;;;;;;25.92;56.45;100395.70;1687207;84;25671;-72
2022/08/05 06:53:12;;;;;;;8.73;4.75;;;;;;;26.11;56.73;100395.71;1669545;84;25784;-72
2022/08/05 06:55:38;;;;;;;5.42;4.92;;;;;;;26.33;55.87;100389.92;1662811;84;27330;-74
2022/08/05 06:58:05;;;;;;;5.53;4.47;;;;;;;26.50;55.32;100390.91;1695807;83;25703;-66
2022/08/05 07:00:32;;;;;;;5.20;4.65;;;;;;;26.62;54.58;100392.53;1692336;83;25775;-66
2022/08/05 07:02:59;;;;;;;4.90;4.37;;;;;;;26.73;54.17;100377.15;1700085;84;25716;-66
2022/08/05 07:05:26;;;;;;;7.60;4.10;;;;;;;26.79;53.74;100381.62;1675251;84;25688;-67
2022/08/05 07:07:52;;;;;;;4.53;4.12;;;;;;;26.96;53.74;100375.02;1693229;83;28045;-66
2022/08/05 07:10:28;;;;;;;4.75;4.25;;;;;;;27.16;53.46;100372.33;1701008;83;25676;-66
2022/08/05 07:18:24;;;;;;;8.03;4.60;;;;;;;27.73;51.69;100383.08;1692289;83;26025;-68
2022/08/05 07:20:51;;;;;;;6.33;4.28;;;;;;;27.90;51.44;100379.02;1696841;83;27370;-68
2022/08/05 07:23:18;;;;;;;6.25;4.42;;;;;;;28.16;50.63;100382.89;1702678;83;25687;-67
2022/08/05 07:25:44;;;;;;;6.97;4.80;;;;;;;28.29;51.01;100381.03;1704933;82;25772;-67
2022/08/05 07:28:10;;;;;;;7.95;5.03;;;;;;;28.57;50.71;100378.11;1690064;83;25877;-67
2022/08/05 07:30:37;;;;;;;4.85;4.08;;;;;;;28.71;49.92;100378.39;1695573;83;25773;-68
2022/08/05 07:33:06;;;;;;;5.55;4.40;;;;;;;28.86;49.28;100372.67;1692896;84;27510;-76
2022/08/05 07:35:33;;;;;;;5.40;4.55;;;;;;;28.97;48.54;100376.62;1694416;83;25785;-73
2022/08/05 07:37:59;;;;;;;5.67;4.03;;;;;;;29.03;48.08;100371.49;1701510;83;25656;-73
2022/08/05 07:40:26;;;;;;;6.87;4.45;;;;;;;29.06;47.79;100368.44;1699810;83;26282;-73
2022/08/05 07:42:53;;;;;;;4.58;3.90;;;;;;;29.17;47.54;100373.80;1693317;83;25761;-72
2022/08/05 07:45:19;;;;;;;4.03;3.72;;;;;;;29.22;47.62;100371.26;1697691;83;27314;-72
2022/08/05 07:47:46;;;;;;;4.55;4.15;;;;;;;29.39;47.15;100368.47;1699363;83;25680;-74
2022/08/05 07:50:12;;;;;;;4.40;4.00;;;;;;;29.42;46.64;100368.96;1700633;83;25805;-73
2022/08/05 07:52:41;;;;;;;4.85;4.05;;;;;;;29.49;46.66;100375.77;1698005;83;25641;-74
2022/08/05 07:55:09;;;;;;;5.03;3.90;;;;;;;29.58;46.26;100368.17;1703432;83;25608;-71
2022/08/05 07:57:36;;;;;;;4.70;3.77;;;;;;;29.75;46.13;100366.13;1707738;83;27276;-74
2022/08/05 08:00:06;;;;;;;4.08;3.70;;;;;;;29.87;44.71;100367.44;1698294;83;26557;-72
2022/08/05 08:02:33;;;;;;;4.97;4.58;;;;;;;29.89;45.01;100370.56;1698600;82;25869;-71
2022/08/05 08:05:00;;;;;;;4.30;3.98;;;;;;;29.93;44.78;100365.06;1694248;83;26317;-72
2022/08/05 08:07:27;;;;;;;6.47;3.40;;;;;;;29.99;45.12;100358.33;1689415;83;25655;-73
2022/08/05 08:09:53;;;;;;;5.03;3.72;;;;;;;30.22;45.43;100357.25;1693941;83;27366;-69
2022/08/05 08:12:20;;;;;;;4.37;4.00;;;;;;;30.53;44.87;100362.37;1688251;84;26091;-69
2022/08/05 08:14:47;;;;;;;3.77;3.47;;;;;;;30.71;44.47;100361.80;1686998;83;25647;-67
2022/08/05 08:17:14;;;;;;;6.95;3.70;;;;;;;30.95;43.78;100360.88;1703238;83;25762;-67
2022/08/05 08:19:41;;;;;;;7.25;3.65;;;;;;;31.04;42.57;100363.78;1685248;83;25712;-69
2022/08/05 08:22:08;;;;;;;5.08;4.10;;;;;;;31.03;43.05;100361.43;1701007;83;27433;-69
2022/08/05 08:24:35;;;;;;;4.72;3.87;;;;;;;31.22;42.69;100368.77;1699018;83;25744;-68
2022/08/05 08:27:04;;;;;;;5.33;3.30;;;;;;;31.36;42.46;100366.72;1693582;83;25684;-69
2022/08/05 08:29:31;;;;;;;4.95;3.90;;;;;;;31.53;42.37;100356.97;1695434;83;25792;-68
2022/08/05 08:31:57;;;;;;;3.85;3.55;;;;;;;31.84;41.81;100366.06;1698527;83;25756;-68
2022/08/05 08:34:26;;;;;;;4.15;3.75;;;;;;;31.98;41.78;100358.57;1705960;83;28105;-68
2022/08/05 08:36:54;;;;;;;5.70;3.70;;;;;;;32.26;41.00;100353.17;1697720;83;25773;-68
2022/08/05 08:39:22;;;;;;;;;;;;;;;32.50;40.84;100356.86;1700577;83;25663;-68
2022/08/05 08:41:50;;;;;;;6.17;3.83;;;;;;;32.73;40.53;100349.37;1685722;83;25905;-69
2022/08/05 08:44:19;;;;;;;5.47;3.57;;;;;;;32.95;39.86;100344.31;1660986;84;25738;-68
2022/08/05 08:46:47;;;;;;;3.52;3.12;;;;;;;33.09;39.49;100346.51;1637234;87;27386;-68
2022/08/05 08:49:14;;;;;;;;;;;;;;;33.39;39.23;100371.33;1617434;88;26409;-69
2022/08/05 08:51:46;;;;;;;4.90;3.33;;;;;;;33.51;38.52;100349.40;1628510;86;25718;-68
2022/08/05 08:54:13;;;;;;;3.47;3.22;;;;;;;33.67;38.36;100378.54;1611691;86;26215;-68
2022/08/05 08:56:41;;;;;;;3.75;3.45;;;;;;;33.52;37.84;100351.57;1636892;86;25709;-68
2022/08/05 08:59:08;;;;;;;3.70;3.40;;;;;;;33.52;37.80;100354.38;1627406;86;28094;-68
2022/08/05 09:01:36;;;;;;;5.28;3.10;;;;;;;33.60;37.59;100355.63;1626239;87;25744;-69
2022/08/05 09:04:03;;;;;;;;;;;;;;;33.62;37.52;100349.69;1670260;85;25630;-70
2022/08/05 09:06:32;;;;;;;5.50;3.35;;;;;;;33.66;36.77;100339.72;1668508;84;25957;-71
2022/08/05 09:09:00;;;;;;;4.53;3.12;;;;;;;33.72;37.20;100337.88;1671245;84;25777;-70
2022/08/05 09:11:27;;;;;;;5.05;3.42;;;;;;;33.95;37.41;100342.67;1638944;83;28107;-70
2022/08/05 09:13:55;;;;;;;3.60;3.30;;;;;;;34.15;36.32;100335.16;1646227;86;25964;-72
2022/08/05 09:16:21;;;;;;;5.35;3.40;;;;;;;34.17;36.13;100335.45;1650578;84;25749;-68
2022/08/05 09:18:48;;;;;;;6.35;3.17;;;;;;;34.05;35.73;100333.80;1640351;86;25680;-68
2022/08/05 09:21:14;;;;;;;3.80;3.50;;;;;;;34.10;35.70;100328.15;1647298;84;25772;-75
2022/08/05 09:23:44;;;;;;;5.37;3.08;;;;;;;34.18;36.10;100335.63;1652392;84;27407;-71
2022/08/05 09:26:18;;;;;;;6.78;3.22;;;;;;;34.36;36.17;100329.98;1641852;86;25794;-70
2022/08/05 09:28:47;;;;;;;7.42;3.17;;;;;;;34.51;35.10;100331.46;1657104;86;25821;-71
2022/08/05 09:31:16;;;;;;;6.10;4.35;;;;;;;34.62;34.65;100332.37;1659375;86;25742;-71
2022/08/05 09:33:55;;;;;;;5.42;3.50;;;;;;;34.64;35.46;100324.87;1671122;84;25469;-71
2022/08/05 09:36:21;;;;;;;3.62;2.87;;;;;;;34.91;35.17;100319.13;1649814;84;27423;-68
2022/08/05 09:39:00;;;;;;;3.33;3.00;;;;;;;35.12;35.15;100319.30;1651023;85;25789;-70
2022/08/05 09:41:26;;;;;;;;;;;;;;;34.90;33.86;100324.58;1691027;83;25694;-72
2022/08/05 09:43:53;;;;;;;3.45;3.10;;;;;;;34.61;33.62;100317.53;1674233;84;25622;-67
2022/08/05 09:46:30;;;;;;;5.83;3.20;;;;;;;34.40;35.00;100315.77;1668409;83;25665;-66
2022/08/05 09:49:06;;;;;;;4.40;2.98;;;;;;;34.43;34.62;100314.20;1707904;83;28298;-67
2022/08/05 09:51:37;;;;;;;3.33;2.62;;;;;;;34.59;34.63;100310.21;1705311;83;26065;-69
2022/08/05 09:54:07;;;;;;;3.25;2.98;;;;;;;34.69;34.49;100310.18;1680720;83;25768;-72
2022/08/05 09:56:39;;;;;;;6.05;2.80;;;;;;;34.82;35.08;100309.36;1702440;83;25648;-71
2022/08/05 09:59:09;;;;;;;4.95;3.50;;;;;;;35.16;34.86;100302.41;1662430;83;25723;-65
2022/08/05 10:01:40;;;;;;;5.35;3.35;;;;;;;35.33;34.21;100306.20;1663913;84;27370;-66
2022/08/05 10:04:13;;;;;;;6.10;3.00;;;;;;;35.57;34.53;100311.79;1682109;83;25885;-66
2022/08/05 10:06:54;;;;;;;4.33;3.30;;;;;;;35.79;33.89;100299.41;1688492;83;25836;-69
2022/08/05 10:09:22;;;;;;;5.10;2.92;;;;;;;35.97;33.39;100292.17;1679287;83;25694;-69
2022/08/05 10:11:52;;;;;;;4.92;3.40;;;;;;;35.94;33.13;100297.37;1686633;83;25722;-68
2022/08/05 10:14:30;;;;;;;3.50;3.08;;;;;;;35.86;32.61;100288.55;1689800;83;27423;-67
2022/08/05 10:17:11;;;;;;;;;;;;;;;35.59;32.07;100284.56;1689793;83;25792;-67
2022/08/05 10:19:38;;;;;;;5.47;3.25;;;;;;;35.30;33.21;100275.63;1667679;84;25655;-68
2022/08/05 10:22:07;;;;;;;7.35;3.20;;;;;;;35.39;32.20;100286.00;1667857;83;25779;-69
2022/08/05 10:24:34;;;;;;;3.10;2.90;;;;;;;35.18;32.40;100293.50;1692225;83;25367;-69
2022/08/05 10:27:01;;;;;;;4.30;3.25;;;;;;;34.95;32.17;100285.99;1697068;83;27333;-70
2022/08/05 10:29:31;;;;;;;5.95;3.87;;;;;;;34.78;32.77;100284.86;1669591;83;25642;-70
2022/08/05 10:31:56;;;;;;;3.98;3.45;;;;;;;34.75;32.72;100278.19;1697815;83;32663;-68
2022/08/05 10:34:23;;;;;;;4.90;3.12;;;;;;;34.59;32.66;100279.32;1683512;83;26492;-68
2022/08/05 10:36:50;;;;;;;3.72;3.25;;;;;;;34.51;32.67;100278.11;1704138;83;25782;-68
2022/08/05 10:39:23;;;;;;;6.37;3.47;;;;;;;34.27;32.61;100278.08;1665518;85;27991;-68
2022/08/05 10:42:01;;;;;;;3.52;3.22;;;;;;;34.16;32.75;100256.75;1626722;86;25572;-68
2022/08/05 10:44:28;;;;;;;4.22;3.90;;;;;;;34.24;33.11;100260.17;1683325;83;25823;-68
2022/08/05 10:46:58;;;;;;;3.97;3.67;;;;;;;34.26;33.04;100256.89;1694956;83;25722;-70
2022/08/05 10:49:25;;;;;;;5.20;4.70;;;;;;;34.45;33.92;100250.55;1695299;84;25791;-68
2022/08/05 10:51:58;;;;;;;4.72;3.65;;;;;;;34.96;33.57;100239.80;1699673;83;27514;-69
2022/08/05 10:54:53;;;;;;;6.20;3.37;;;;;;;35.25;32.80;100246.77;1678708;84;25757;-68
2022/08/05 10:57:27;;;;;;;3.60;3.30;;;;;;;35.27;32.53;100244.25;1681266;84;25739;-68
2022/08/05 11:00:21;;;;;;;4.90;3.45;;;;;;;35.49;32.39;100244.53;1670773;84;26422;-68
2022/08/05 11:03:09;;;;;;;7.28;3.87;;;;;;;35.78;32.60;100239.56;1687880;84;25722;-69
2022/08/05 11:05:37;;;;;;;3.72;3.40;;;;;;;36.02;31.55;100242.89;1670612;84;28027;-68
2022/08/05 11:08:09;;;;;;;4.37;3.58;;;;;;;36.07;31.55;100241.56;1671929;84;25768;-68
2022/08/05 11:10:41;;;;;;;4.15;3.67;;;;;;;36.17;31.45;100238.64;1678150;84;25688;-67
2022/08/05 11:13:08;;;;;;;3.80;3.50;;;;;;;36.35;30.96;100227.14;1677548;83;25720;-71
2022/08/05 11:15:42;;;;;;;4.17;3.60;;;;;;;36.34;30.85;100238.28;1685358;83;25681;-71
2022/08/05 11:18:23;;;;;;;5.70;3.70;;;;;;;36.31;31.62;100234.27;1694325;84;27371;-70
2022/08/05 11:20:51;;;;;;;5.72;3.67;;;;;;;36.29;31.07;100232.58;1669448;84;25797;-71
2022/08/05 11:23:51;;;;;;;4.45;3.90;;;;;;;36.36;31.03;100224.48;1686016;84;25894;-71
2022/08/05 11:26:22;;;;;;;4.10;3.70;;;;;;;36.48;30.82;100215.55;1695428;84;25716;-71
2022/08/05 11:28:52;;;;;;;6.10;4.20;;;;;;;36.26;30.85;100213.97;1700528;83;26234;-71
2022/08/05 11:31:22;;;;;;;5.78;3.87;;;;;;;36.35;30.35;100220.11;1698177;83;27459;-69
2022/08/05 11:33:54;;;;;;;4.30;3.80;;;;;;;36.40;30.81;100219.41;1695760;83;25888;-69
2022/08/05 11:36:45;;;;;;;5.10;3.60;;;;;;;36.43;30.63;100207.81;1694089;84;26399;-69
2022/08/05 11:39:15;;;;;;;9.23;3.83;;;;;;;36.51;30.28;100212.38;1694135;83;26377;-70
2022/08/05 11:41:50;;;;;;;5.65;3.87;;;;;;;36.47;30.20;100209.77;1681294;83;25722;-70